createdAt,value
2023-03-22T00:01:14.577Z,10.91
2023-03-22T00:03:43.021Z,10.83
2023-03-22T00:06:10.684Z,10.96
2023-03-22T00:08:38.712Z,10.40
2023-03-22T00:11:06.896Z,10.39
2023-03-22T00:13:37.373Z,10.46
2023-03-22T00:16:05.754Z,10.48
2023-03-22T00:18:32.957Z,10.36
2023-03-22T00:21:00.667Z,10.35
2023-03-22T00:23:29.167Z,10.32
2023-03-22T00:25:56.660Z,10.28
2023-03-22T00:28:24.523Z,10.15
2023-03-22T00:30:55.535Z,9.86
2023-03-22T00:33:23.591Z,9.78
2023-03-22T00:35:52.645Z,9.60
2023-03-22T00:38:21.899Z,9.57
2023-03-22T00:40:50.740Z,9.76
2023-03-22T00:43:17.907Z,9.84
2023-03-22T00:45:44.921Z,10.18
2023-03-22T00:48:12.486Z,10.24
2023-03-22T00:50:41.313Z,10.15
2023-03-22T00:53:08.340Z,9.97
2023-03-22T00:55:35.596Z,9.89
2023-03-22T00:58:03.004Z,10.23
2023-03-22T01:00:31.691Z,10.15
2023-03-22T01:02:59.880Z,10.08
2023-03-22T01:05:28.415Z,10.50
2023-03-22T01:07:55.721Z,10.71
2023-03-22T01:10:23.099Z,10.52
2023-03-22T01:12:50.187Z,10.59
2023-03-22T01:15:17.396Z,10.30
2023-03-22T01:17:44.618Z,10.03
2023-03-22T01:20:12.217Z,10.39
2023-03-22T01:22:39.233Z,10.59
2023-03-22T01:25:06.748Z,10.12
2023-03-22T01:27:33.741Z,10.66
2023-03-22T01:30:00.741Z,10.68
2023-03-22T01:32:27.862Z,10.80
2023-03-22T01:34:55.055Z,10.93
2023-03-22T01:37:22.362Z,10.73
2023-03-22T01:39:49.975Z,10.84
2023-03-22T01:42:18.436Z,10.97
2023-03-22T01:45:11.604Z,10.76
2023-03-22T01:47:40.133Z,10.47
2023-03-22T01:50:08.863Z,10.31
2023-03-22T01:52:37.687Z,10.45
2023-03-22T01:55:13.259Z,10.41
2023-03-22T01:57:45.217Z,10.37
2023-03-22T02:00:20.777Z,10.31
2023-03-22T02:03:25.950Z,9.95
2023-03-22T02:05:54.203Z,10.11
2023-03-22T02:08:24.199Z,10.19
2023-03-22T02:11:05.691Z,10.19
2023-03-22T02:14:12.719Z,10.34
2023-03-22T02:17:14.499Z,10.53
2023-03-22T02:20:30.110Z,10.39
2023-03-22T02:23:36.260Z,10.13
2023-03-22T02:26:31.611Z,10.45
2023-03-22T02:29:15.907Z,10.09
2023-03-22T02:32:20.098Z,9.44
2023-03-22T02:34:57.419Z,9.63
2023-03-22T02:38:01.742Z,9.82
2023-03-22T02:40:54.945Z,10.07
2023-03-22T02:43:46.333Z,10.49
2023-03-22T02:46:30.847Z,10.39
2023-03-22T02:49:22.537Z,10.29
2023-03-22T02:51:59.390Z,10.39
2023-03-22T02:54:33.694Z,10.39
2023-03-22T02:57:17.025Z,10.48
2023-03-22T02:59:46.088Z,10.53
2023-03-22T03:02:19.757Z,10.19
2023-03-22T03:04:50.010Z,10.16
2023-03-22T03:07:22.371Z,9.88
2023-03-22T03:09:51.230Z,9.79
2023-03-22T03:12:21.348Z,9.58
2023-03-22T03:14:48.582Z,9.19
2023-03-22T03:18:00.098Z,8.95
2023-03-22T03:20:42.747Z,8.86
2023-03-22T03:23:28.946Z,8.90
2023-03-22T03:26:29.265Z,8.92
2023-03-22T03:29:07.044Z,9.36
2023-03-22T03:31:57.268Z,9.73
2023-03-22T03:34:49.585Z,9.98
2023-03-22T03:37:20.999Z,9.96
2023-03-22T03:40:18.233Z,9.40
2023-03-22T03:42:51.808Z,9.32
2023-03-22T03:45:22.305Z,9.27
2023-03-22T03:47:57.190Z,9.24
2023-03-22T03:50:26.238Z,9.39
2023-03-22T03:52:55.580Z,9.30
2023-03-22T03:55:24.820Z,9.13
2023-03-22T03:57:52.104Z,9.36
2023-03-22T04:00:19.961Z,9.04
2023-03-22T04:03:07.260Z,8.89
2023-03-22T04:05:54.468Z,9.25
2023-03-22T04:08:22.284Z,9.42
2023-03-22T04:10:51.897Z,9.46
2023-03-22T04:13:24.803Z,9.48
2023-03-22T04:15:57.643Z,9.15
2023-03-22T04:18:25.409Z,9.44
2023-03-22T04:20:53.693Z,9.59
2023-03-22T04:23:23.296Z,9.46
2023-03-22T04:25:51.275Z,9.73
2023-03-22T04:28:29.833Z,9.93
2023-03-22T04:30:57.931Z,10.04
2023-03-22T04:33:49.905Z,10.15
2023-03-22T04:36:36.639Z,10.00
2023-03-22T04:39:13.819Z,10.37
2023-03-22T04:41:45.521Z,10.61
2023-03-22T04:44:12.659Z,10.54
2023-03-22T04:46:44.602Z,10.61
2023-03-22T04:49:11.797Z,10.43
2023-03-22T04:51:42.248Z,10.50
2023-03-22T04:54:19.508Z,10.41
2023-03-22T04:56:46.457Z,10.65
2023-03-22T04:59:17.918Z,10.67
2023-03-22T05:01:50.130Z,10.74
2023-03-22T05:04:21.337Z,10.66
2023-03-22T05:06:52.704Z,10.56
2023-03-22T05:09:30.149Z,10.58
2023-03-22T05:11:58.023Z,10.45
2023-03-22T05:14:29.032Z,10.49
2023-03-22T05:16:56.352Z,10.64
2023-03-22T05:19:24.539Z,10.40
2023-03-22T05:21:58.328Z,10.44
2023-03-22T05:24:37.970Z,10.44
2023-03-22T05:27:05.920Z,10.75
2023-03-22T05:29:37.114Z,10.59
2023-03-22T05:32:12.925Z,10.56
2023-03-22T05:34:42.832Z,10.80
2023-03-22T05:37:22.642Z,10.86
2023-03-22T05:39:56.897Z,11.16
2023-03-22T05:42:35.168Z,11.06
2023-03-22T05:45:06.638Z,11.21
2023-03-22T05:47:34.382Z,10.89
2023-03-22T05:50:13.464Z,10.77
2023-03-22T05:52:40.858Z,10.77
2023-03-22T05:55:34.101Z,10.59
2023-03-22T05:58:05.262Z,10.97
2023-03-22T06:00:35.882Z,10.79
2023-03-22T06:03:39.745Z,10.80
2023-03-22T06:06:15.916Z,10.29
2023-03-22T06:09:15.911Z,10.45
2023-03-22T06:11:44.507Z,10.84
2023-03-22T06:14:12.507Z,10.35
2023-03-22T06:17:09.527Z,10.24
2023-03-22T06:19:37.029Z,10.05
2023-03-22T06:22:06.471Z,10.26
2023-03-22T06:24:36.106Z,10.72
2023-03-22T06:27:04.665Z,10.57
2023-03-22T06:29:33.479Z,10.55
2023-03-22T06:32:03.929Z,10.67
2023-03-22T06:34:31.889Z,10.90
2023-03-22T06:36:59.213Z,10.72
2023-03-22T06:39:35.382Z,9.95
2023-03-22T06:42:03.069Z,9.38
2023-03-22T06:44:30.386Z,10.14
2023-03-22T06:47:15.851Z,9.61
2023-03-22T06:50:01.034Z,9.72
2023-03-22T06:52:45.474Z,10.00
2023-03-22T06:55:12.923Z,10.60
2023-03-22T06:57:39.928Z,10.45
2023-03-22T07:00:10.190Z,10.67
2023-03-22T07:02:37.511Z,10.84
2023-03-22T07:05:22.646Z,11.26
2023-03-22T07:07:49.856Z,10.22
2023-03-22T07:10:19.396Z,9.94
2023-03-22T07:12:53.130Z,10.10
2023-03-22T07:15:24.444Z,9.78
2023-03-22T07:18:01.612Z,9.81
2023-03-22T07:20:29.619Z,10.23
2023-03-22T07:22:57.427Z,10.13
2023-03-22T07:25:27.568Z,9.91
2023-03-22T07:28:04.317Z,9.77
2023-03-22T07:30:32.330Z,9.63
2023-03-22T07:32:59.435Z,9.61
2023-03-22T07:35:27.074Z,9.46
2023-03-22T07:37:55.394Z,8.95
2023-03-22T07:40:28.429Z,8.96
2023-03-22T07:42:56.701Z,9.18
2023-03-22T07:45:35.859Z,9.41
2023-03-22T07:48:23.113Z,9.79
2023-03-22T07:51:10.421Z,10.03
2023-03-22T07:53:38.024Z,10.67
2023-03-22T07:56:05.583Z,10.92
2023-03-22T07:58:32.766Z,11.32
2023-03-22T08:01:04.585Z,11.55
2023-03-22T08:03:51.804Z,11.79
2023-03-22T08:06:37.244Z,11.40
2023-03-22T08:09:05.623Z,11.20
2023-03-22T08:11:32.918Z,11.10
2023-03-22T08:14:00.392Z,11.12
2023-03-22T08:16:27.851Z,11.48
2023-03-22T08:18:55.982Z,11.60
2023-03-22T08:21:26.210Z,11.85
2023-03-22T08:23:55.470Z,11.86
2023-03-22T08:26:34.337Z,11.73
2023-03-22T08:29:11.681Z,11.91
2023-03-22T08:31:38.962Z,11.88
2023-03-22T08:34:06.367Z,11.91
2023-03-22T08:36:33.527Z,11.92
2023-03-22T08:39:04.692Z,11.58
2023-03-22T08:41:57.732Z,10.78
2023-03-22T08:44:27.121Z,9.55
2023-03-22T08:46:55.368Z,9.28
2023-03-22T08:49:22.702Z,9.55
2023-03-22T08:52:00.599Z,9.30
2023-03-22T08:54:47.630Z,9.36
2023-03-22T08:57:33.150Z,9.04
2023-03-22T09:00:17.536Z,9.19
2023-03-22T09:02:52.394Z,8.91
2023-03-22T09:05:20.246Z,9.08
2023-03-22T09:07:51.748Z,8.60
2023-03-22T09:10:29.059Z,8.68
2023-03-22T09:12:56.478Z,8.33
2023-03-22T09:15:23.876Z,8.22
2023-03-22T09:18:06.146Z,8.18
2023-03-22T09:20:34.531Z,8.23
2023-03-22T09:23:01.823Z,8.36
2023-03-22T09:25:28.912Z,8.33
2023-03-22T09:27:57.693Z,8.18
2023-03-22T09:30:25.453Z,8.19
2023-03-22T09:32:52.578Z,8.06
2023-03-22T09:35:20.541Z,8.05
2023-03-22T09:38:03.747Z,7.83
2023-03-22T09:40:33.241Z,7.73
2023-03-22T09:43:06.237Z,7.85
2023-03-22T09:45:42.117Z,7.68
2023-03-22T09:48:37.248Z,7.69
2023-03-22T09:51:07.922Z,7.66
2023-03-22T09:53:34.978Z,7.69
2023-03-22T09:56:27.837Z,7.81
2023-03-22T09:59:17.791Z,7.82
2023-03-22T10:02:00.498Z,7.64
2023-03-22T10:04:44.202Z,7.70
2023-03-22T10:07:23.203Z,7.86
2023-03-22T10:09:59.147Z,7.76
2023-03-22T10:12:31.056Z,7.56
2023-03-22T10:15:10.871Z,7.65
2023-03-22T10:17:41.355Z,7.80
2023-03-22T10:20:32.400Z,7.77
2023-03-22T10:23:03.090Z,8.02
2023-03-22T10:25:39.882Z,7.95
2023-03-22T10:28:21.312Z,7.88
2023-03-22T10:30:54.697Z,7.71
2023-03-22T10:33:29.277Z,7.93
2023-03-22T10:35:57.101Z,7.88
2023-03-22T10:38:27.392Z,7.77
2023-03-22T10:40:58.439Z,7.89
2023-03-22T10:43:58.951Z,7.90
2023-03-22T10:46:32.292Z,7.94
2023-03-22T10:49:01.170Z,7.97
2023-03-22T10:51:49.455Z,7.91
2023-03-22T10:54:21.645Z,8.09
2023-03-22T10:56:48.742Z,8.12
2023-03-22T10:59:55.978Z,8.15
2023-03-22T11:02:32.604Z,8.06
2023-03-22T11:05:04.057Z,8.15
2023-03-22T11:07:35.739Z,8.31
2023-03-22T11:10:08.680Z,8.68
2023-03-22T11:12:40.016Z,9.23
2023-03-22T11:15:20.338Z,9.51
2023-03-22T11:17:48.356Z,9.77
2023-03-22T11:20:19.928Z,9.47
2023-03-22T11:22:49.608Z,9.08
2023-03-22T11:25:29.341Z,9.37
2023-03-22T11:28:09.602Z,9.25
2023-03-22T11:30:37.437Z,8.71
2023-03-22T11:33:04.419Z,9.03
2023-03-22T11:35:31.783Z,9.02
2023-03-22T11:37:59.622Z,8.89
2023-03-22T11:40:35.030Z,9.13
2023-03-22T11:43:10.702Z,8.98
2023-03-22T11:45:43.057Z,9.04
2023-03-22T11:48:16.298Z,9.15
2023-03-22T11:50:44.958Z,9.22
2023-03-22T11:53:24.758Z,9.21
2023-03-22T11:55:55.318Z,9.20
2023-03-22T11:58:28.225Z,9.09
2023-03-22T12:00:59.967Z,9.03
2023-03-22T12:03:37.619Z,8.88
2023-03-22T12:06:23.602Z,8.87
2023-03-22T12:08:58.638Z,8.85
2023-03-22T12:11:35.236Z,8.88
2023-03-22T12:14:11.223Z,8.92
2023-03-22T12:16:49.312Z,9.07
2023-03-22T12:19:36.908Z,9.32
2023-03-22T12:22:11.142Z,9.14
2023-03-22T12:24:38.178Z,9.23
2023-03-22T12:27:16.688Z,9.19
2023-03-22T12:29:52.309Z,9.35
2023-03-22T12:32:24.962Z,9.44
2023-03-22T12:35:01.303Z,9.23
2023-03-22T12:37:40.257Z,9.31
2023-03-22T12:40:39.657Z,9.48
2023-03-22T12:43:32.040Z,9.20
2023-03-22T12:46:02.216Z,9.14
2023-03-22T12:48:33.837Z,9.31
2023-03-22T12:51:05.971Z,9.62
2023-03-22T12:53:42.739Z,9.25
2023-03-22T12:56:16.861Z,9.21
2023-03-22T12:58:49.092Z,9.11
2023-03-22T13:01:37.354Z,9.29
2023-03-22T13:04:26.016Z,9.34
2023-03-22T13:06:53.651Z,9.53
2023-03-22T13:09:29.956Z,9.18
2023-03-22T13:12:15.882Z,9.26
2023-03-22T13:15:31.643Z,9.48
2023-03-22T13:18:31.158Z,9.51
2023-03-22T13:21:14.123Z,9.30
2023-03-22T13:24:01.021Z,9.17
2023-03-22T13:26:53.060Z,9.14
2023-03-22T13:29:36.468Z,8.97
2023-03-22T13:32:06.341Z,9.22
2023-03-22T13:34:39.731Z,9.16
2023-03-22T13:37:46.114Z,9.34
2023-03-22T13:40:22.289Z,9.16
2023-03-22T13:42:51.542Z,9.17
2023-03-22T13:45:57.524Z,9.37
2023-03-22T13:48:49.436Z,9.45
2023-03-22T13:51:25.625Z,9.08
2023-03-22T13:53:55.542Z,9.35
2023-03-22T13:56:44.551Z,9.04
2023-03-22T13:59:20.458Z,9.15
2023-03-22T14:02:07.693Z,9.22
2023-03-22T14:05:09.329Z,9.05
2023-03-22T14:07:46.660Z,8.91
2023-03-22T14:10:18.461Z,8.99
2023-03-22T14:12:48.430Z,8.88
2023-03-22T14:15:19.171Z,8.66
2023-03-22T14:18:08.365Z,8.66
2023-03-22T14:20:39.602Z,8.34
